createdAt,value
2018-07-27T00:04:46.052Z,21.00
2018-07-27T00:09:49.694Z,21.00
2018-07-27T00:14:53.551Z,20.90
2018-07-27T00:19:57.375Z,20.80
2018-07-27T00:25:01.262Z,20.80
2018-07-27T00:30:06.375Z,20.70
2018-07-27T00:35:09.644Z,20.70
2018-07-27T00:40:12.904Z,20.70
2018-07-27T00:50:19.986Z,20.60
2018-07-27T00:55:23.290Z,20.40
2018-07-27T01:00:26.659Z,20.20
2018-07-27T01:05:30.138Z,20.20
2018-07-27T01:10:34.117Z,20.20
2018-07-27T01:15:37.407Z,20.20
2018-07-27T01:20:40.943Z,20.30
2018-07-27T01:25:44.216Z,20.10
2018-07-27T01:30:47.496Z,20.10
2018-07-27T01:35:51.416Z,20.10
2018-07-27T01:40:55.476Z,20.30
2018-07-27T01:45:59.461Z,20.20
2018-07-27T01:51:03.284Z,20.20
2018-07-27T01:56:06.559Z,20.10
2018-07-27T02:01:10.361Z,20.20
2018-07-27T02:06:14.113Z,19.80
2018-07-27T02:11:17.669Z,19.70
2018-07-27T02:16:20.953Z,19.40
2018-07-27T02:21:24.230Z,19.10
2018-07-27T02:26:27.600Z,19.00
2018-07-27T02:31:31.115Z,19.00
2018-07-27T02:36:34.447Z,18.70
2018-07-27T02:41:38.184Z,18.70
2018-07-27T02:46:42.664Z,18.80
2018-07-27T02:51:46.429Z,18.90
2018-07-27T02:56:51.744Z,18.80
2018-07-27T03:01:55.622Z,19.00
2018-07-27T03:06:59.343Z,19.10
2018-07-27T03:12:03.692Z,19.10
2018-07-27T03:17:07.480Z,18.90
2018-07-27T03:22:11.157Z,18.90
2018-07-27T03:27:14.937Z,19.00
2018-07-27T03:32:18.265Z,19.00
2018-07-27T03:42:24.522Z,18.60
2018-07-27T03:47:27.808Z,18.40
2018-07-27T03:52:31.079Z,18.50
2018-07-27T03:57:34.354Z,18.50
2018-07-27T04:02:37.619Z,18.40
2018-07-27T04:07:40.900Z,18.40
2018-07-27T04:12:44.306Z,18.40
2018-07-27T04:18:00.681Z,18.60
2018-07-27T04:23:03.982Z,18.50
2018-07-27T04:28:07.255Z,18.50
2018-07-27T04:33:10.545Z,18.50
2018-07-27T04:38:13.826Z,18.70
2018-07-27T04:43:17.080Z,18.90
2018-07-27T04:48:20.367Z,18.90
2018-07-27T04:53:23.648Z,19.10
2018-07-27T04:58:26.912Z,19.30
2018-07-27T05:03:30.188Z,19.70
2018-07-27T05:13:40.782Z,20.00
2018-07-27T05:18:44.079Z,20.10
2018-07-27T05:23:47.356Z,20.20
2018-07-27T05:28:50.607Z,20.30
2018-07-27T05:33:54.074Z,20.80
2018-07-27T05:38:57.581Z,21.40
2018-07-27T05:44:00.850Z,21.20
2018-07-27T05:49:04.127Z,21.50
2018-07-27T05:54:07.471Z,22.10
2018-07-27T05:59:10.729Z,22.10
2018-07-27T06:04:14.024Z,22.50
2018-07-27T06:09:17.295Z,23.10
2018-07-27T06:14:20.632Z,23.80
2018-07-27T06:24:28.769Z,24.60
2018-07-27T06:29:31.982Z,25.10
2018-07-27T06:34:35.243Z,25.50
2018-07-27T06:39:38.511Z,26.20
2018-07-27T06:44:41.850Z,26.10
2018-07-27T06:49:45.126Z,26.10
2018-07-27T06:54:48.394Z,25.00
2018-07-27T06:59:51.670Z,25.40
2018-07-27T07:04:54.948Z,26.30
2018-07-27T07:09:58.246Z,24.90
2018-07-27T07:15:01.521Z,24.90
2018-07-27T07:20:05.829Z,24.90
2018-07-27T07:25:09.185Z,26.30
2018-07-27T07:30:12.439Z,26.70
2018-07-27T07:35:15.687Z,26.50
2018-07-27T07:40:18.988Z,25.50
2018-07-27T07:45:22.267Z,25.60
2018-07-27T07:50:25.808Z,25.80
2018-07-27T08:00:32.099Z,26.30
2018-07-27T08:05:35.368Z,26.80
2018-07-27T08:10:38.652Z,27.40
2018-07-27T08:15:42.521Z,27.30
2018-07-27T08:20:46.511Z,27.00
2018-07-27T08:26:55.659Z,27.90
2018-07-27T08:37:03.140Z,29.20
2018-07-27T08:42:06.920Z,28.50
2018-07-27T08:53:17.433Z,28.90
2018-07-27T08:58:20.775Z,29.10
2018-07-27T09:03:26.404Z,29.50
2018-07-27T09:08:30.521Z,30.10
2018-07-27T09:13:34.046Z,29.90
2018-07-27T09:18:39.860Z,29.80
2018-07-27T09:28:49.351Z,30.50
2018-07-27T09:33:54.609Z,30.60
2018-07-27T09:39:00.242Z,30.90
2018-07-27T09:44:05.657Z,29.30
2018-07-27T09:54:14.518Z,28.60
2018-07-27T09:59:19.391Z,29.20
2018-07-27T10:04:22.841Z,29.80
2018-07-27T10:24:39.456Z,31.30
2018-07-27T10:29:44.950Z,32.00
2018-07-27T10:34:51.229Z,32.50
2018-07-27T10:45:01.017Z,33.10
2018-07-27T10:50:07.328Z,32.70
2018-07-27T10:55:10.772Z,32.70
2018-07-27T11:00:16.603Z,33.50
2018-07-27T11:05:19.939Z,33.80
2018-07-27T11:10:23.304Z,33.70
2018-07-27T11:15:29.317Z,33.80
2018-07-27T11:20:33.402Z,34.60
2018-07-27T11:25:36.762Z,34.80
2018-07-27T11:30:39.996Z,35.00
2018-07-27T11:35:43.257Z,36.00
2018-07-27T11:40:46.507Z,35.50
2018-07-27T11:45:49.777Z,34.90
2018-07-27T11:50:55.186Z,34.10
2018-07-27T11:55:58.999Z,34.00
2018-07-27T12:01:02.721Z,31.90
2018-07-27T12:06:07.787Z,32.40
2018-07-27T12:11:13.334Z,33.00
2018-07-27T12:16:16.948Z,33.20
2018-07-27T12:21:22.123Z,33.60
2018-07-27T12:36:34.756Z,34.20
2018-07-27T12:41:39.627Z,34.70
2018-07-27T12:46:43.631Z,33.80
2018-07-27T12:51:47.203Z,33.90
2018-07-27T12:56:50.495Z,33.90
2018-07-27T13:01:54.960Z,33.30
2018-07-27T13:06:58.892Z,32.60
2018-07-27T13:12:03.716Z,32.60
2018-07-27T13:17:07.692Z,32.20
2018-07-27T13:22:12.242Z,31.60
2018-07-27T13:27:15.539Z,31.50
2018-07-27T13:32:18.816Z,31.40
2018-07-27T13:37:23.504Z,31.80
2018-07-27T13:42:28.051Z,34.70
2018-07-27T13:47:31.383Z,36.80
2018-07-27T13:52:34.769Z,37.50
2018-07-27T13:57:39.009Z,38.60
2018-07-27T14:02:42.246Z,39.50
2018-07-27T14:07:45.938Z,38.40
2018-07-27T14:12:49.221Z,36.60
2018-07-27T14:17:52.513Z,37.80
2018-07-27T14:22:55.799Z,37.30
2018-07-27T14:27:59.136Z,37.20
2018-07-27T14:33:02.688Z,35.40
2018-07-27T14:43:09.179Z,32.10
2018-07-27T14:48:12.488Z,31.30
2018-07-27T14:53:15.788Z,33.00
2018-07-27T14:58:19.127Z,34.00
2018-07-27T15:08:25.635Z,31.30
2018-07-27T15:13:28.980Z,34.00
2018-07-27T15:18:32.293Z,34.00
2018-07-27T15:28:38.678Z,32.60
2018-07-27T15:38:45.453Z,32.70
2018-07-27T15:43:48.837Z,34.10
2018-07-27T15:53:56.665Z,36.60
2018-07-27T15:58:59.952Z,37.40
2018-07-27T16:04:03.531Z,37.40
2018-07-27T16:09:08.470Z,36.50
2018-07-27T16:14:12.154Z,34.90
2018-07-27T16:19:15.795Z,33.50
2018-07-27T16:24:19.147Z,33.20
2018-07-27T16:29:22.560Z,32.90
2018-07-27T16:34:26.249Z,32.20
2018-07-27T16:39:29.540Z,31.60
2018-07-27T16:44:32.831Z,31.40
2018-07-27T16:49:36.118Z,31.40
2018-07-27T16:54:39.387Z,31.40
2018-07-27T16:59:42.705Z,31.40
2018-07-27T17:09:49.622Z,31.10
2018-07-27T17:14:52.910Z,31.00
2018-07-27T17:19:56.216Z,30.90
2018-07-27T17:24:59.618Z,30.60
2018-07-27T17:35:05.861Z,30.20
2018-07-27T17:40:09.624Z,30.00
2018-07-27T17:45:12.930Z,29.80
2018-07-27T17:50:16.226Z,29.30
2018-07-27T18:00:22.651Z,29.10
2018-07-27T18:10:28.922Z,28.60
2018-07-27T18:15:32.231Z,28.40
2018-07-27T18:20:35.514Z,28.20
2018-07-27T18:30:41.829Z,28.00
2018-07-27T18:35:45.087Z,27.90
2018-07-27T18:40:48.514Z,27.70
2018-07-27T18:45:51.844Z,27.60
2018-07-27T19:01:01.179Z,27.20
2018-07-27T19:06:04.511Z,27.00
2018-07-27T19:11:07.794Z,26.70
2018-07-27T19:16:11.307Z,26.40
2018-07-27T19:21:14.546Z,26.30
2018-07-27T19:26:17.794Z,26.20
2018-07-27T19:31:21.203Z,25.90
2018-07-27T19:36:24.496Z,25.60
2018-07-27T19:41:28.542Z,25.40
2018-07-27T19:46:31.793Z,25.40
2018-07-27T19:51:35.066Z,25.40
2018-07-27T19:56:38.402Z,25.40
2018-07-27T20:06:44.735Z,24.80
2018-07-27T20:11:50.044Z,24.40
2018-07-27T20:16:53.353Z,24.30
2018-07-27T20:26:59.668Z,24.20
2018-07-27T20:32:02.938Z,23.70
2018-07-27T20:37:06.702Z,23.70
2018-07-27T20:42:10.017Z,23.50
2018-07-27T20:47:13.338Z,23.30
2018-07-27T20:52:16.653Z,23.30
2018-07-27T21:07:26.029Z,23.30
2018-07-27T21:12:29.315Z,23.30
2018-07-27T21:17:34.410Z,23.10
2018-07-27T21:32:44.641Z,22.40
2018-07-27T21:37:48.126Z,22.40
2018-07-27T21:42:51.404Z,22.20
2018-07-27T21:47:54.802Z,22.30
2018-07-27T21:58:01.944Z,22.10
2018-07-27T22:28:25.009Z,21.40
2018-07-27T22:33:28.420Z,21.30
2018-07-27T22:38:31.736Z,21.40
2018-07-27T22:43:35.035Z,21.40
2018-07-27T22:48:38.482Z,21.30
2018-07-27T22:53:42.339Z,21.20
2018-07-27T22:58:46.358Z,21.10
2018-07-27T23:03:49.717Z,21.10
2018-07-27T23:08:53.071Z,20.80
2018-07-27T23:13:56.795Z,20.70
2018-07-27T23:19:00.580Z,20.60
2018-07-27T23:24:04.130Z,20.60
2018-07-27T23:29:07.606Z,20.70
2018-07-27T23:34:10.884Z,20.90
2018-07-27T23:39:14.560Z,20.90
2018-07-27T23:44:17.811Z,20.90
2018-07-27T23:49:21.172Z,20.60
2018-07-27T23:54:24.579Z,20.50
